Startpagina
METAR-TAF:

METAR-TAF

Vliegvelden :

Aéroport de Luxembourg

Luxemburg, Luxemburg

breedte: 49-37N, lengte: 006-13E, hoogte: 376 m

Actueel weer

Dit bericht is 44 minuten geleden gemaakt, om 17:50 UTC
Wind 5 kt uit het oosten, variërend tussen het oostnoordoosten en het oostzuidoosten
Temperatuur 24°C
Vochtigheid 47%
Druk 1016 hPa
Zicht 10 km of meer
geen wolken onder 1500 m en geen cumulonimbus

METAR: ELLX 191750Z 09005KT 060V120 CAVOK 24/12 Q1016 NOSIG

Tijdstip: 20:34 (18:34 UTC)

Verwachting

Dit bericht is 1 uur en het 34 minuten geleden gemaakt, om 17:00 UTC
Verwachting geldig van 19 om 18 UTC tot 20 om 24 UTC
Wind 5 kt uit het oostnoordoosten
Zicht 10 km of meer
geen wolken onder 1500 m en geen cumulonimbus

TAF: ELLX 191700Z 1918/2024 07005KT CAVOK

Waarnemingen en weersverwachtingen van meer dan 4000 vliegvelden (METAR en TAF).

De beschikbare stations zijn de gele en rode punten op de kaart.

Ga met uw muis naar het station om de naam te zien.

Klik dan om waarnemingen en weersverwachtingen te zien.

kaart wijzigen: klik op de groene knoppen met een zwart kruis om in te zoomen, op de groene knop met een streepje om uit te zoomen of op de groene pijlen voor aangrenzende kaarten.


METAR-TAF: